Time;durP1;ratioP1;P1;durP2;ratioP2;P2;SDS_P1;SDS_P2;PMS_P1;PMS_P2;Temp;Humidity;BMP_temperature;BMP_pressure;BME280_temperature;BME280_humidity;BME280_pressure;Samples;Min_cycle;Max_cycle;Signal;HPM_P1;HPM_P2
2023/12/06 00:00:24;;;;;;;45.60;27.80;;;3.10;99.90;;;;;;6301029;22;20042;-75
2023/12/06 00:03:10;;;;;;;45.20;26.85;;;3.10;99.90;;;;;;6301073;22;20004;-76
2023/12/06 00:05:56;;;;;;;48.65;28.08;;;3.10;99.90;;;;;;6300974;22;20015;-76
2023/12/06 00:08:42;;;;;;;48.20;27.75;;;3.10;99.90;;;;;;6299557;22;20003;-76
2023/12/06 00:11:28;;;;;;;50.63;27.95;;;3.10;99.90;;;;;;6300801;22;20015;-76
2023/12/06 00:14:13;;;;;;;44.63;26.73;;;3.10;99.90;;;;;;6298721;22;20110;-77
2023/12/06 00:16:59;;;;;;;46.42;27.90;;;3.10;99.90;;;;;;6300263;22;20090;-76
2023/12/06 00:19:45;;;;;;;53.25;29.55;;;3.00;99.90;;;;;;6300046;22;20008;-80
2023/12/06 00:22:31;;;;;;;49.70;27.63;;;3.10;99.90;;;;;;6276778;22;20011;-79
2023/12/06 00:25:17;;;;;;;43.75;26.83;;;3.00;99.90;;;;;;6299606;22;20034;-78
2023/12/06 00:28:03;;;;;;;48.22;27.67;;;3.00;99.90;;;;;;6278030;22;20007;-76
2023/12/06 00:30:49;;;;;;;47.30;28.13;;;3.10;99.90;;;;;;6300446;22;20007;-75
2023/12/06 00:33:35;;;;;;;45.33;28.05;;;3.10;99.90;;;;;;6298504;22;20019;-76
2023/12/06 00:36:21;;;;;;;47.00;28.90;;;3.10;99.90;;;;;;6276520;22;20511;-76
2023/12/06 00:39:08;;;;;;;50.83;29.92;;;3.10;99.90;;;;;;6298080;22;20019;-76
2023/12/06 00:41:54;;;;;;;46.92;28.77;;;3.10;99.90;;;;;;6277177;22;20011;-74
2023/12/06 00:44:40;;;;;;;46.97;28.95;;;3.10;99.90;;;;;;6278331;22;20019;-79
2023/12/06 00:47:26;;;;;;;46.45;28.13;;;3.10;99.90;;;;;;6299463;22;20015;-79
2023/12/06 00:50:12;;;;;;;49.22;28.02;;;3.10;99.90;;;;;;6278117;22;20003;-79
2023/12/06 00:52:58;;;;;;;45.58;27.23;;;3.10;99.90;;;;;;6297512;22;20012;-79
2023/12/06 00:55:44;;;;;;;51.25;31.13;;;3.10;99.90;;;;;;6298467;22;20015;-79
2023/12/06 00:58:30;;;;;;;42.22;27.15;;;3.00;99.90;;;;;;6297927;22;20096;-75
2023/12/06 01:01:16;;;;;;;45.05;28.15;;;3.00;99.90;;;;;;6276199;22;20652;-75
2023/12/06 01:04:02;;;;;;;49.17;28.60;;;3.10;99.90;;;;;;6277950;22;20096;-75
2023/12/06 01:06:48;;;;;;;49.75;27.35;;;3.10;99.90;;;;;;6278282;22;20137;-75
2023/12/06 01:09:34;;;;;;;47.28;28.40;;;3.10;99.90;;;;;;6277775;22;20014;-75
2023/12/06 01:12:20;;;;;;;49.05;28.08;;;3.10;99.90;;;;;;6301290;22;20003;-75
2023/12/06 01:15:06;;;;;;;44.47;28.65;;;3.10;99.90;;;;;;6276923;22;20098;-79
2023/12/06 01:17:52;;;;;;;42.83;26.73;;;3.10;99.90;;;;;;6299823;22;20034;-78
2023/12/06 01:20:38;;;;;;;54.80;29.92;;;3.10;99.90;;;;;;6297697;22;20003;-79
2023/12/06 01:23:24;;;;;;;43.70;26.95;;;3.10;99.90;;;;;;6276702;22;20072;-78
2023/12/06 01:26:10;;;;;;;49.95;26.67;;;3.20;99.90;;;;;;6297336;22;20412;-79
2023/12/06 01:28:56;;;;;;;45.83;27.15;;;3.20;99.90;;;;;;6277980;22;20100;-79
2023/12/06 01:31:42;;;;;;;43.95;26.10;;;3.20;99.90;;;;;;6278107;22;20010;-78
2023/12/06 01:34:28;;;;;;;43.47;26.90;;;3.20;99.90;;;;;;6278119;22;20007;-78
2023/12/06 01:37:14;;;;;;;47.33;28.10;;;3.10;99.90;;;;;;6300272;22;20008;-78
2023/12/06 01:39:59;;;;;;;53.50;28.45;;;3.10;99.90;;;;;;6300215;22;20050;-77
2023/12/06 01:42:48;;;;;;;49.40;29.05;;;3.10;99.90;;;;;;6297060;22;20419;-76
2023/12/06 01:45:35;;;;;;;44.55;27.17;;;3.20;99.90;;;;;;6302866;22;20014;-76
2023/12/06 01:48:22;;;;;;;53.13;29.75;;;3.20;99.90;;;;;;6302321;22;20029;-76
2023/12/06 01:51:09;;;;;;;48.30;27.80;;;3.20;99.90;;;;;;6280690;22;20462;-76
2023/12/06 01:53:55;;;;;;;45.85;26.77;;;3.20;99.90;;;;;;6301886;22;20086;-75
2023/12/06 01:56:44;;;;;;;44.65;26.08;;;3.20;99.90;;;;;;6279653;22;20064;-76
2023/12/06 01:59:31;;;;;;;42.38;26.63;;;3.20;99.90;;;;;;6278492;22;20051;-76
2023/12/06 02:02:17;;;;;;;44.42;27.25;;;3.20;99.90;;;;;;6302727;22;20405;-76
2023/12/06 02:05:03;;;;;;;42.92;25.98;;;3.30;99.90;;;;;;6301247;22;20008;-76
2023/12/06 02:07:50;;;;;;;51.03;28.80;;;3.30;99.90;;;;;;6278928;22;20427;-77
2023/12/06 02:10:36;;;;;;;47.20;27.02;;;3.30;99.90;;;;;;6279926;22;20330;-77
2023/12/06 02:13:22;;;;;;;43.72;26.00;;;3.30;99.90;;;;;;6300953;22;20377;-77
2023/12/06 02:16:09;;;;;;;46.92;28.10;;;3.30;99.90;;;;;;6278745;22;20011;-77
2023/12/06 02:18:55;;;;;;;48.60;28.88;;;3.20;99.90;;;;;;6301302;22;20026;-77
2023/12/06 02:21:41;;;;;;;44.67;27.73;;;3.30;99.90;;;;;;6301829;22;20437;-77
2023/12/06 02:24:30;;;;;;;44.92;26.73;;;3.30;99.90;;;;;;6277942;22;20466;-76
2023/12/06 02:27:16;;;;;;;45.95;26.63;;;3.30;99.90;;;;;;6301987;22;20422;-77
2023/12/06 02:30:02;;;;;;;46.97;26.50;;;3.30;99.90;;;;;;6278065;22;20015;-76
2023/12/06 02:32:48;;;;;;;51.65;28.48;;;3.30;99.90;;;;;;6301757;22;20450;-77
2023/12/06 02:35:41;;;;;;;46.05;27.13;;;3.30;99.90;;;;;;6301069;22;20011;-77
2023/12/06 02:38:28;;;;;;;46.65;26.05;;;3.20;99.90;;;;;;6302443;22;20483;-76
2023/12/06 02:41:17;;;;;;;45.97;27.40;;;3.30;99.90;;;;;;6279474;22;20026;-76
2023/12/06 02:44:03;;;;;;;46.15;27.45;;;3.30;99.90;;;;;;6279318;22;20489;-75
2023/12/06 02:46:49;;;;;;;47.13;28.13;;;3.30;99.90;;;;;;6279921;22;20035;-75
2023/12/06 02:49:35;;;;;;;47.20;26.80;;;3.30;99.90;;;;;;6300125;22;20015;-74
2023/12/06 02:52:21;;;;;;;44.65;27.13;;;3.30;99.90;;;;;;6300561;22;20010;-74
2023/12/06 02:55:07;;;;;;;44.15;27.50;;;3.30;99.90;;;;;;6278890;22;20014;-74
2023/12/06 02:57:53;;;;;;;48.42;28.30;;;3.30;99.90;;;;;;6300139;22;20053;-73
2023/12/06 03:00:38;;;;;;;47.22;28.00;;;3.30;99.90;;;;;;6298279;22;20462;-73
2023/12/06 03:03:25;;;;;;;46.78;27.15;;;3.30;99.90;;;;;;6300736;22;20003;-71
2023/12/06 03:06:10;;;;;;;48.63;28.67;;;3.30;99.90;;;;;;6299177;22;20029;-72
2023/12/06 03:08:56;;;;;;;46.95;28.48;;;3.30;99.90;;;;;;6300331;22;20007;-72
2023/12/06 03:11:42;;;;;;;41.80;26.55;;;3.30;99.90;;;;;;6300925;22;20064;-73
2023/12/06 03:14:28;;;;;;;43.65;26.35;;;3.30;99.90;;;;;;6301328;22;20007;-73
2023/12/06 03:17:14;;;;;;;44.75;26.77;;;3.30;99.90;;;;;;6276187;22;20011;-79
2023/12/06 03:20:00;;;;;;;43.30;26.42;;;3.30;99.90;;;;;;6298225;22;20357;-75
2023/12/06 03:22:46;;;;;;;45.08;26.05;;;3.30;99.90;;;;;;6300354;22;20003;-77
2023/12/06 03:25:32;;;;;;;42.72;25.33;;;3.30;99.90;;;;;;6300876;22;20007;-70
2023/12/06 03:28:18;;;;;;;43.30;25.80;;;3.30;99.90;;;;;;6278136;22;20505;-70
2023/12/06 03:31:04;;;;;;;44.83;26.70;;;3.40;99.90;;;;;;6299468;22;20011;-70
2023/12/06 03:33:50;;;;;;;46.42;27.42;;;3.30;99.90;;;;;;6279683;22;20039;-70
2023/12/06 03:36:36;;;;;;;47.50;27.15;;;3.30;99.90;;;;;;6299124;22;20425;-70
2023/12/06 03:39:22;;;;;;;54.65;28.90;;;3.20;99.90;;;;;;6299392;22;20034;-70
2023/12/06 03:42:08;;;;;;;45.63;26.75;;;3.20;99.90;;;;;;6298369;22;20022;-70
2023/12/06 03:44:54;;;;;;;47.65;26.63;;;3.30;99.90;;;;;;6277582;22;20382;-70
2023/12/06 03:47:40;;;;;;;38.67;25.52;;;3.20;99.90;;;;;;6300150;22;20023;-76
2023/12/06 03:50:25;;;;;;;48.33;27.73;;;3.20;99.90;;;;;;6300694;22;20049;-74
2023/12/06 03:53:11;;;;;;;44.58;25.38;;;3.30;99.90;;;;;;6299765;22;20035;-74
2023/12/06 03:55:57;;;;;;;43.42;27.17;;;3.30;99.90;;;;;;6298919;22;20559;-73
2023/12/06 03:58:43;;;;;;;46.03;25.15;;;3.30;99.90;;;;;;6299078;22;20019;-73
2023/12/06 04:01:29;;;;;;;42.97;27.13;;;3.30;99.90;;;;;;6297978;22;20046;-73
2023/12/06 04:04:15;;;;;;;47.15;26.95;;;3.30;99.90;;;;;;6302067;22;20010;-73
2023/12/06 04:07:01;;;;;;;44.88;26.30;;;3.30;99.90;;;;;;6296509;22;20011;-73
2023/12/06 04:09:47;;;;;;;37.72;24.30;;;3.30;99.90;;;;;;6300838;22;20121;-73
2023/12/06 04:12:33;;;;;;;43.10;25.10;;;3.30;99.90;;;;;;6298373;22;20018;-73
2023/12/06 04:15:19;;;;;;;41.90;24.55;;;3.30;99.90;;;;;;6299876;22;20136;-73
2023/12/06 04:18:05;;;;;;;45.20;26.17;;;3.30;99.90;;;;;;6298103;22;20073;-71
2023/12/06 04:20:52;;;;;;;42.95;25.70;;;3.40;99.90;;;;;;6299163;22;20026;-72
2023/12/06 04:23:37;;;;;;;43.25;25.13;;;3.30;99.90;;;;;;6300439;22;20106;-72
2023/12/06 04:26:23;;;;;;;42.33;24.58;;;3.30;99.90;;;;;;6299282;22;20003;-73
2023/12/06 04:29:09;;;;;;;41.47;24.80;;;3.40;99.90;;;;;;6299471;22;20019;-73
2023/12/06 04:31:55;;;;;;;44.60;26.55;;;3.40;99.90;;;;;;6300242;22;20095;-73
2023/12/06 04:35:09;;;;;;;41.47;25.60;;;3.30;99.90;;;;;;6300667;22;20343;-73
2023/12/06 04:37:55;;;;;;;41.28;24.23;;;3.30;99.90;;;;;;6300141;22;20026;-73
2023/12/06 04:40:41;;;;;;;45.10;25.90;;;3.40;99.90;;;;;;6298113;22;20003;-73
2023/12/06 04:43:27;;;;;;;45.20;27.05;;;3.40;99.90;;;;;;6300762;22;20019;-73
2023/12/06 04:46:13;;;;;;;46.13;26.27;;;3.40;99.90;;;;;;6278898;22;20083;-70
2023/12/06 04:48:59;;;;;;;41.53;25.05;;;3.40;99.90;;;;;;6296915;22;20098;-71
2023/12/06 04:51:45;;;;;;;46.10;27.05;;;3.40;99.90;;;;;;6276282;22;20003;-70
2023/12/06 04:54:31;;;;;;;40.20;26.25;;;3.30;99.90;;;;;;6298956;22;20014;-70
2023/12/06 04:57:17;;;;;;;42.63;25.50;;;3.30;99.90;;;;;;6277332;22;20014;-70
2023/12/06 05:00:08;;;;;;;48.28;27.02;;;3.30;99.90;;;;;;6298543;22;20091;-70
2023/12/06 05:02:54;;;;;;;41.03;24.90;;;3.30;99.90;;;;;;6300363;22;20018;-74
2023/12/06 05:05:40;;;;;;;44.55;26.35;;;3.30;99.90;;;;;;6298304;22;20102;-73
2023/12/06 05:08:26;;;;;;;42.83;26.35;;;3.30;99.90;;;;;;6299474;22;20011;-73
2023/12/06 05:11:12;;;;;;;46.60;27.52;;;3.30;99.90;;;;;;6299140;22;20007;-73
2023/12/06 05:13:58;;;;;;;41.58;25.50;;;3.30;99.90;;;;;;6298523;22;20043;-71
2023/12/06 05:16:44;;;;;;;49.33;26.63;;;3.40;99.90;;;;;;6300224;22;20007;-69
2023/12/06 05:19:30;;;;;;;44.72;25.08;;;3.40;99.90;;;;;;6299016;22;20019;-70
2023/12/06 05:22:16;;;;;;;46.92;26.33;;;3.40;99.90;;;;;;6297300;22;20095;-70
2023/12/06 05:25:03;;;;;;;43.90;24.25;;;3.40;99.90;;;;;;6298495;22;20007;-70
2023/12/06 05:27:49;;;;;;;44.28;27.67;;;3.40;99.90;;;;;;6300075;22;20027;-70
2023/12/06 05:30:35;;;;;;;41.25;25.65;;;3.40;99.90;;;;;;6302972;22;20082;-71
2023/12/06 05:33:21;;;;;;;45.42;26.20;;;3.40;99.90;;;;;;6300884;22;20011;-70
2023/12/06 05:36:07;;;;;;;43.00;25.17;;;3.40;99.90;;;;;;6300451;22;20635;-70
2023/12/06 05:38:53;;;;;;;39.63;24.77;;;3.40;99.90;;;;;;6296260;22;20171;-70
2023/12/06 05:41:39;;;;;;;45.53;27.23;;;3.40;99.90;;;;;;6300565;22;20467;-70
2023/12/06 05:44:25;;;;;;;45.15;25.80;;;3.40;99.90;;;;;;6276816;22;20348;-70
2023/12/06 05:47:11;;;;;;;40.33;24.45;;;3.40;99.90;;;;;;6300147;22;20405;-70
2023/12/06 05:49:57;;;;;;;46.90;27.20;;;3.40;99.90;;;;;;6300539;22;20015;-70
2023/12/06 05:52:43;;;;;;;44.10;26.75;;;3.40;99.90;;;;;;6277206;22;20011;-70
2023/12/06 05:55:29;;;;;;;46.55;26.10;;;3.40;99.90;;;;;;6298096;22;20007;-71
2023/12/06 05:58:15;;;;;;;41.78;26.38;;;3.50;99.90;;;;;;6298154;22;20104;-71
2023/12/06 06:01:01;;;;;;;41.80;25.33;;;3.50;99.90;;;;;;6298203;22;20108;-71
2023/12/06 06:03:47;;;;;;;39.97;26.38;;;3.50;99.90;;;;;;6299583;22;20008;-71
2023/12/06 06:06:37;;;;;;;46.10;26.45;;;3.50;99.90;;;;;;6300621;22;20007;-70
2023/12/06 06:09:22;;;;;;;42.38;23.90;;;3.50;99.90;;;;;;6278273;22;20014;-72
2023/12/06 06:12:08;;;;;;;42.22;25.88;;;3.50;99.90;;;;;;6300252;22;20014;-72
2023/12/06 06:14:55;;;;;;;37.90;24.08;;;3.50;99.90;;;;;;6300002;22;20453;-72
2023/12/06 06:17:41;;;;;;;48.03;27.35;;;3.50;99.90;;;;;;6277307;22;20106;-72
2023/12/06 06:20:27;;;;;;;45.88;26.50;;;3.40;99.90;;;;;;6277051;22;20004;-72
2023/12/06 06:23:12;;;;;;;44.03;25.38;;;3.40;99.90;;;;;;6277017;22;20007;-74
2023/12/06 06:25:59;;;;;;;44.38;25.00;;;3.40;99.90;;;;;;6275932;22;20018;-73
2023/12/06 06:28:45;;;;;;;41.83;26.02;;;3.40;99.90;;;;;;6299345;22;20014;-70
2023/12/06 06:31:31;;;;;;;40.33;26.48;;;3.40;99.90;;;;;;6302087;22;20037;-70
2023/12/06 06:34:17;;;;;;;42.70;24.88;;;3.50;99.90;;;;;;6304094;22;20015;-70
2023/12/06 06:37:03;;;;;;;44.65;26.40;;;3.40;99.90;;;;;;6300603;22;20056;-70
2023/12/06 06:39:49;;;;;;;44.55;25.48;;;3.40;99.90;;;;;;6300490;22;20015;-72
2023/12/06 06:42:35;;;;;;;44.60;25.25;;;3.40;99.90;;;;;;6300358;22;20011;-72
2023/12/06 06:45:21;;;;;;;45.70;27.25;;;3.40;99.90;;;;;;6302463;22;20068;-72
2023/12/06 06:48:07;;;;;;;44.85;27.48;;;3.50;99.90;;;;;;6301778;22;20029;-72
2023/12/06 06:50:53;;;;;;;43.45;26.08;;;3.50;99.90;;;;;;6301884;22;20010;-72
2023/12/06 06:53:39;;;;;;;44.72;25.50;;;3.50;99.90;;;;;;6301271;22;20090;-72
2023/12/06 06:56:25;;;;;;;48.67;26.80;;;3.40;99.90;;;;;;6280038;22;20038;-72
2023/12/06 06:59:12;;;;;;;40.03;24.27;;;3.40;99.90;;;;;;6298980;22;20432;-73
2023/12/06 07:01:58;;;;;;;46.38;25.83;;;3.40;99.90;;;;;;6276315;22;20424;-72
2023/12/06 07:04:44;;;;;;;50.20;27.50;;;3.40;99.90;;;;;;6278512;22;20830;-72
2023/12/06 07:07:30;;;;;;;43.33;27.15;;;3.50;99.90;;;;;;6301235;22;20485;-70
2023/12/06 07:10:16;;;;;;;43.85;26.60;;;3.50;99.90;;;;;;6300845;22;20011;-70
2023/12/06 07:13:02;;;;;;;42.92;26.02;;;3.50;99.90;;;;;;6300008;22;20017;-69
2023/12/06 07:15:48;;;;;;;46.08;25.88;;;3.50;99.90;;;;;;6299839;22;20445;-70
2023/12/06 07:18:34;;;;;;;45.10;27.73;;;3.50;99.90;;;;;;6296431;22;20058;-75
2023/12/06 07:21:20;;;;;;;46.78;26.67;;;3.50;99.90;;;;;;6297128;22;20222;-68
2023/12/06 07:24:06;;;;;;;44.72;27.67;;;3.50;99.90;;;;;;6298056;22;20023;-67
2023/12/06 07:26:52;;;;;;;43.83;27.10;;;3.50;99.90;;;;;;6297406;22;20015;-66
2023/12/06 07:29:38;;;;;;;43.50;25.80;;;3.50;99.90;;;;;;6277810;22;20011;-71
2023/12/06 07:32:24;;;;;;;45.67;25.95;;;3.50;99.90;;;;;;6278532;22;20073;-72
2023/12/06 07:35:10;;;;;;;46.70;27.77;;;3.50;99.90;;;;;;6300996;22;20596;-78
2023/12/06 07:37:56;;;;;;;45.35;26.23;;;3.50;99.90;;;;;;6300946;22;20019;-79
2023/12/06 07:40:42;;;;;;;43.75;27.02;;;3.50;99.90;;;;;;6277004;22;20004;-78
2023/12/06 07:43:28;;;;;;;40.17;24.85;;;3.60;99.90;;;;;;6299194;22;20088;-76
2023/12/06 07:46:14;;;;;;;44.13;26.88;;;3.60;99.90;;;;;;6301392;22;20012;-74
2023/12/06 08:24:06;;;;;;;44.75;25.77;;;3.60;99.90;;;;;;6288218;22;20023;-75
2023/12/06 08:26:52;;;;;;;44.83;25.98;;;3.60;99.90;;;;;;6299571;22;20152;-75
2023/12/06 08:29:38;;;;;;;46.05;26.70;;;3.60;99.90;;;;;;6298636;22;20017;-74
2023/12/06 08:32:24;;;;;;;44.90;26.58;;;3.60;99.90;;;;;;6298838;22;20026;-74
2023/12/06 08:35:10;;;;;;;45.13;26.10;;;3.60;99.90;;;;;;6274902;22;20038;-74
2023/12/06 08:37:56;;;;;;;42.40;26.17;;;3.70;99.90;;;;;;6278012;22;20098;-74
2023/12/06 08:40:42;;;;;;;47.65;25.42;;;3.70;99.90;;;;;;6297292;22;20398;-74
2023/12/06 08:43:28;;;;;;;48.15;26.77;;;3.70;99.90;;;;;;6300945;22;20011;-74
2023/12/06 08:46:16;;;;;;;50.58;27.45;;;3.80;99.90;;;;;;6276078;22;20481;-74
2023/12/06 08:49:03;;;;;;;43.50;25.00;;;3.80;99.90;;;;;;6296269;22;20015;-72
2023/12/06 08:51:49;;;;;;;43.95;27.10;;;3.80;99.90;;;;;;6298958;22;20413;-72
2023/12/06 08:54:35;;;;;;;47.67;26.08;;;3.80;99.90;;;;;;6296487;22;20011;-73
2023/12/06 08:57:21;;;;;;;41.80;25.08;;;3.90;99.90;;;;;;6276634;22;20484;-72
2023/12/06 09:00:11;;;;;;;49.17;27.00;;;3.80;99.90;;;;;;6276531;22;20030;-73
2023/12/06 09:02:57;;;;;;;43.60;26.67;;;3.80;99.90;;;;;;6302362;22;20022;-73
2023/12/06 09:05:43;;;;;;;42.20;24.67;;;3.90;99.90;;;;;;6276662;22;20003;-74
2023/12/06 09:08:29;;;;;;;45.42;26.15;;;4.00;99.90;;;;;;6298201;22;20007;-74
2023/12/06 09:11:20;;;;;;;46.97;26.90;;;3.90;99.90;;;;;;6299512;22;20497;-74
2023/12/06 09:14:05;;;;;;;42.83;26.42;;;3.90;99.90;;;;;;6300699;22;20008;-73
2023/12/06 09:16:52;;;;;;;43.75;26.85;;;3.90;99.90;;;;;;6278285;22;20073;-74
2023/12/06 09:19:37;;;;;;;47.28;25.48;;;3.90;99.90;;;;;;6277504;22;20033;-74
2023/12/06 09:22:23;;;;;;;44.13;26.30;;;3.90;99.90;;;;;;6298710;22;20046;-73
2023/12/06 09:25:09;;;;;;;40.75;25.40;;;3.90;99.90;;;;;;6298171;22;20423;-72
2023/12/06 09:27:55;;;;;;;45.13;26.65;;;4.00;99.90;;;;;;6295869;22;20007;-74
2023/12/06 09:30:41;;;;;;;43.17;25.65;;;3.90;99.90;;;;;;6294995;22;20398;-77
2023/12/06 09:33:29;;;;;;;45.20;26.75;;;4.00;99.90;;;;;;6297752;22;20077;-72
2023/12/06 09:36:16;;;;;;;38.97;23.75;;;4.00;99.90;;;;;;6299488;22;20544;-68
2023/12/06 09:39:04;;;;;;;47.88;27.38;;;4.00;99.90;;;;;;6298440;22;20031;-71
2023/12/06 09:41:50;;;;;;;49.22;27.23;;;4.00;99.90;;;;;;6299499;22;20094;-71
2023/12/06 09:44:41;;;;;;;48.28;27.13;;;4.00;99.90;;;;;;6298743;22;20042;-72
2023/12/06 09:47:28;;;;;;;39.45;24.42;;;4.00;99.90;;;;;;6300610;22;20038;-72
2023/12/06 09:50:15;;;;;;;41.15;25.65;;;4.00;99.90;;;;;;6300942;22;20011;-72
2023/12/06 09:53:01;;;;;;;47.33;26.80;;;4.00;99.90;;;;;;6297166;22;20007;-72
2023/12/06 09:55:47;;;;;;;43.25;25.83;;;4.10;99.90;;;;;;6295802;22;20487;-72
2023/12/06 09:58:33;;;;;;;51.95;27.52;;;4.00;99.90;;;;;;6297942;22;20488;-72
2023/12/06 10:01:19;;;;;;;45.03;27.67;;;4.10;99.90;;;;;;6299069;22;20011;-73
2023/12/06 10:04:05;;;;;;;42.55;25.63;;;4.10;99.90;;;;;;6300650;22;20004;-72
2023/12/06 10:06:51;;;;;;;40.53;24.52;;;4.10;99.90;;;;;;6297804;22;20068;-72
2023/12/06 10:09:37;;;;;;;44.72;27.88;;;4.00;99.90;;;;;;6300871;22;20072;-72
2023/12/06 10:12:23;;;;;;;41.10;25.90;;;4.00;99.90;;;;;;6275967;22;20000;-73
2023/12/06 10:15:10;;;;;;;47.35;26.48;;;4.10;99.90;;;;;;6299720;22;20092;-68
2023/12/06 10:17:56;;;;;;;42.30;26.35;;;4.10;99.90;;;;;;6278109;22;20015;-67
2023/12/06 10:20:43;;;;;;;42.83;26.08;;;4.10;99.90;;;;;;6277740;22;20014;-67
2023/12/06 10:23:30;;;;;;;39.65;25.02;;;4.10;99.90;;;;;;6299656;22;20018;-66
2023/12/06 10:26:16;;;;;;;42.53;25.52;;;4.10;99.90;;;;;;6303489;22;20015;-67
2023/12/06 10:29:02;;;;;;;38.30;24.00;;;4.20;99.90;;;;;;6297190;22;20389;-68
2023/12/06 10:31:48;;;;;;;41.00;25.38;;;4.20;99.90;;;;;;6302307;22;20013;-68
2023/12/06 10:34:35;;;;;;;41.00;24.95;;;4.20;99.90;;;;;;6299453;22;20017;-70
2023/12/06 10:37:21;;;;;;;44.63;25.50;;;4.20;99.90;;;;;;6302584;22;20095;-69
2023/12/06 10:40:10;;;;;;;45.50;25.73;;;4.20;99.90;;;;;;6300981;22;20074;-70
2023/12/06 10:43:07;;;;;;;45.42;25.35;;;4.20;99.90;;;;;;6302238;22;20003;-71
2023/12/06 10:45:54;;;;;;;43.92;25.60;;;4.20;99.90;;;;;;6300862;22;20100;-71
2023/12/06 10:48:41;;;;;;;40.60;24.25;;;4.30;99.90;;;;;;6280129;22;20018;-71
2023/12/06 10:51:29;;;;;;;42.90;26.38;;;4.30;99.90;;;;;;6302828;22;20083;-71
2023/12/06 10:54:15;;;;;;;41.20;25.08;;;4.30;99.90;;;;;;6302746;22;20011;-71
2023/12/06 10:57:03;;;;;;;42.42;26.08;;;4.30;99.90;;;;;;6300195;22;20045;-70
2023/12/06 10:59:49;;;;;;;46.13;26.83;;;4.30;99.90;;;;;;6300342;22;20019;-70
2023/12/06 11:02:35;;;;;;;40.92;24.85;;;4.30;99.90;;;;;;6301676;22;20478;-71
2023/12/06 11:05:27;;;;;;;46.42;27.80;;;4.30;99.90;;;;;;6299301;22;20011;-68
2023/12/06 11:08:24;;;;;;;48.33;27.00;;;4.30;99.90;;;;;;6301138;22;20450;-70
2023/12/06 11:11:38;;;;;;;43.30;27.17;;;4.30;99.90;;;;;;6302187;22;20042;-70
2023/12/06 11:14:32;;;;;;;43.70;26.20;;;4.30;99.90;;;;;;6301499;22;20021;-70
2023/12/06 11:17:33;;;;;;;44.40;25.73;;;4.30;99.90;;;;;;6300758;22;20491;-71
2023/12/06 11:20:19;;;;;;;58.17;28.48;;;4.40;99.90;;;;;;6301625;22;20019;-71
2023/12/06 11:23:06;;;;;;;43.05;26.85;;;4.40;99.90;;;;;;6301973;22;20083;-70
2023/12/06 11:25:53;;;;;;;42.72;25.60;;;4.40;99.90;;;;;;6301249;22;20425;-71
2023/12/06 11:28:41;;;;;;;43.97;27.52;;;4.40;99.90;;;;;;6277156;22;20007;-71
2023/12/06 11:31:37;;;;;;;45.88;27.52;;;4.50;99.90;;;;;;6302182;22;20012;-71
2023/12/06 11:34:36;;;;;;;40.35;26.48;;;4.40;99.90;;;;;;6301078;22;20046;-71
2023/12/06 11:37:22;;;;;;;45.60;26.08;;;4.50;99.90;;;;;;6301703;22;20117;-71
2023/12/06 11:40:18;;;;;;;46.63;24.95;;;4.40;99.90;;;;;;6300079;22;20045;-71
2023/12/06 11:43:05;;;;;;;41.17;25.23;;;4.50;99.90;;;;;;6301838;22;20090;-71
2023/12/06 11:46:01;;;;;;;45.20;26.33;;;4.50;99.90;;;;;;6301644;22;20133;-71
2023/12/06 11:48:50;;;;;;;42.33;25.73;;;4.40;99.90;;;;;;6300350;22;20039;-72
2023/12/06 11:51:36;;;;;;;42.55;25.65;;;4.40;99.90;;;;;;6301967;22;20011;-70
2023/12/06 11:54:22;;;;;;;42.63;23.92;;;4.40;99.90;;;;;;6301732;22;20197;-70
2023/12/06 11:57:10;;;;;;;44.53;24.88;;;4.40;99.90;;;;;;6300195;22;20058;-71
2023/12/06 11:59:56;;;;;;;43.70;26.05;;;4.40;99.90;;;;;;6299523;22;20466;-71
2023/12/06 12:02:42;;;;;;;40.78;25.17;;;4.40;99.90;;;;;;6301637;22;20011;-71
2023/12/06 12:05:28;;;;;;;43.85;26.13;;;4.40;99.90;;;;;;6297552;22;20019;-70
2023/12/06 12:08:14;;;;;;;43.90;25.90;;;4.40;99.90;;;;;;6301539;22;20011;-71
2023/12/06 12:11:00;;;;;;;43.55;26.73;;;4.40;99.90;;;;;;6301046;22;20007;-70
2023/12/06 12:13:47;;;;;;;41.35;24.92;;;4.40;99.90;;;;;;6301591;22;20535;-71
2023/12/06 12:16:33;;;;;;;44.13;27.83;;;4.40;99.90;;;;;;6301226;22;20010;-71
2023/12/06 12:19:19;;;;;;;42.80;25.55;;;4.40;99.90;;;;;;6298032;22;20015;-71
2023/12/06 12:22:05;;;;;;;46.47;27.33;;;4.40;99.90;;;;;;6299523;22;20014;-71
2023/12/06 12:24:51;;;;;;;40.22;24.88;;;4.40;99.90;;;;;;6300070;22;20023;-71
2023/12/06 12:27:38;;;;;;;40.20;25.17;;;4.50;99.90;;;;;;6301192;22;20513;-71
2023/12/06 12:30:24;;;;;;;44.75;26.42;;;4.50;99.90;;;;;;6301683;22;20355;-71
2023/12/06 12:33:11;;;;;;;44.85;27.10;;;4.40;99.90;;;;;;6300583;22;20019;-68
2023/12/06 12:35:57;;;;;;;40.83;25.58;;;4.50;99.90;;;;;;6301575;22;20395;-73
2023/12/06 12:38:44;;;;;;;44.25;26.60;;;4.50;99.90;;;;;;6301077;22;20026;-69
2023/12/06 12:41:30;;;;;;;45.10;26.55;;;4.50;99.90;;;;;;6301501;22;20007;-69
2023/12/06 12:44:16;;;;;;;42.88;27.23;;;4.50;99.90;;;;;;6297619;22;20014;-69
2023/12/06 12:47:02;;;;;;;43.10;24.88;;;4.50;99.90;;;;;;6301283;22;20011;-70
2023/12/06 12:49:48;;;;;;;42.70;25.95;;;4.50;99.90;;;;;;6275901;22;20789;-71
2023/12/06 12:52:37;;;;;;;42.22;24.20;;;4.60;99.90;;;;;;6299406;22;20343;-72
2023/12/06 12:55:25;;;;;;;46.05;26.63;;;4.60;99.90;;;;;;6300584;22;20090;-72
2023/12/06 12:58:11;;;;;;;42.25;24.77;;;4.60;99.90;;;;;;6297432;22;20019;-72
2023/12/06 13:00:59;;;;;;;46.13;26.25;;;4.60;99.90;;;;;;6301107;22;20542;-72
2023/12/06 13:03:46;;;;;;;42.90;25.02;;;4.60;99.90;;;;;;6300553;22;20014;-72
2023/12/06 13:06:33;;;;;;;40.90;24.20;;;4.50;99.90;;;;;;6300410;22;20037;-72
2023/12/06 13:09:20;;;;;;;41.80;24.90;;;4.50;99.90;;;;;;6298417;22;20067;-72
2023/12/06 13:12:06;;;;;;;44.53;26.30;;;4.60;99.90;;;;;;6301131;22;20015;-72
2023/12/06 13:14:53;;;;;;;46.42;23.90;;;4.50;99.90;;;;;;6299964;22;20007;-72
2023/12/06 13:17:39;;;;;;;40.67;25.52;;;4.50;99.90;;;;;;6278454;22;20030;-72
2023/12/06 13:20:25;;;;;;;42.42;25.50;;;4.50;99.90;;;;;;6298631;22;20011;-72
2023/12/06 13:23:11;;;;;;;42.20;24.15;;;4.50;99.90;;;;;;6300889;22;20004;-72
2023/12/06 13:25:57;;;;;;;41.92;25.13;;;4.50;99.90;;;;;;6299913;22;20020;-72
2023/12/06 13:28:43;;;;;;;39.42;24.00;;;4.50;99.90;;;;;;6299688;22;20427;-72
2023/12/06 13:31:29;;;;;;;41.60;25.77;;;4.50;99.90;;;;;;6300843;22;20009;-73
2023/12/06 13:34:15;;;;;;;44.80;25.52;;;4.50;99.90;;;;;;6278039;22;19999;-71
2023/12/06 13:37:00;;;;;;;45.38;25.02;;;4.50;99.90;;;;;;6298459;22;20013;-71
2023/12/06 13:39:46;;;;;;;48.60;27.48;;;4.50;99.90;;;;;;6278391;22;20019;-70
2023/12/06 13:42:32;;;;;;;46.13;28.00;;;4.50;99.90;;;;;;6300639;22;20051;-71
2023/12/06 13:45:18;;;;;;;42.95;24.58;;;4.50;99.90;;;;;;6281035;22;20065;-72
2023/12/06 13:48:04;;;;;;;41.50;25.45;;;4.50;99.90;;;;;;6302425;22;20007;-73
2023/12/06 13:50:50;;;;;;;47.78;25.63;;;4.50;99.90;;;;;;6279389;22;20011;-73
2023/12/06 13:53:37;;;;;;;40.20;23.98;;;4.50;99.90;;;;;;6302272;22;20483;-73
2023/12/06 13:56:23;;;;;;;44.28;25.27;;;4.50;99.90;;;;;;6301347;22;20011;-72
2023/12/06 13:59:10;;;;;;;42.72;24.85;;;4.50;99.90;;;;;;6277591;22;20015;-73
2023/12/06 14:01:55;;;;;;;49.42;27.08;;;4.50;99.90;;;;;;6300855;22;20012;-72
2023/12/06 14:04:41;;;;;;;40.97;23.25;;;4.50;99.90;;;;;;6301275;22;20007;-71
2023/12/06 14:07:27;;;;;;;42.17;24.50;;;4.50;99.90;;;;;;6300365;22;20007;-70
2023/12/06 14:10:13;;;;;;;43.55;25.60;;;4.50;99.90;;;;;;6302693;22;20003;-70
2023/12/06 14:12:59;;;;;;;40.17;24.42;;;4.50;99.90;;;;;;6301811;22;20007;-70
2023/12/06 14:15:46;;;;;;;44.30;23.42;;;4.50;99.90;;;;;;6298107;22;20007;-70
2023/12/06 14:18:32;;;;;;;42.42;24.45;;;4.50;99.90;;;;;;6300146;22;20072;-70
2023/12/06 14:21:18;;;;;;;42.90;25.05;;;4.50;99.90;;;;;;6278344;22;20482;-71
2023/12/06 14:24:05;;;;;;;40.75;24.30;;;4.40;99.90;;;;;;6302216;22;20072;-71
2023/12/06 14:26:51;;;;;;;44.55;25.83;;;4.40;99.90;;;;;;6279495;22;20090;-70
2023/12/06 14:29:37;;;;;;;39.28;24.52;;;4.40;99.90;;;;;;6303389;22;20418;-70
2023/12/06 14:32:23;;;;;;;41.13;24.02;;;4.40;99.90;;;;;;6301819;22;20038;-70
2023/12/06 14:35:12;;;;;;;38.63;24.70;;;4.50;99.90;;;;;;6300645;22;20010;-71
2023/12/06 14:37:58;;;;;;;42.92;26.02;;;4.50;99.90;;;;;;6297173;22;20023;-71
2023/12/06 14:40:44;;;;;;;39.67;24.40;;;4.50;99.90;;;;;;6278742;22;20149;-71
2023/12/06 14:43:30;;;;;;;41.25;24.65;;;4.50;99.90;;;;;;6300856;22;20090;-72
2023/12/06 14:46:16;;;;;;;42.15;26.27;;;4.50;99.90;;;;;;6279900;22;20007;-73
2023/12/06 14:49:02;;;;;;;44.58;25.58;;;4.50;99.90;;;;;;6302640;22;20015;-73